Dades meteomassalio
Diari Summary for Abril 19, 2017 Units:  Metric    English   Both
« Previous Day
Next Day »
Diari Semanal Mensual Anual Personalitzat
  Maxima: Minima: Mijana:
Temperatura: 17.8 °C 9.7 °C 13.4 °C
Rosada: 8.4 °C 1.4 °C 5.3 °C
Humitat: 73 % 41 % 59 %
Velocitat del vent: 31.5 km/h 0.0 km/h 10.1 km/h
Racha vent: 31.5 km/h - -
Vent:- - SSW
Pressio: 1022.6 hPa 1016.8 hPa -
Pluja: 0.0 mm    
Historical Graphs
 
 
Tabular Data for Abril 19, 2017
Time Temperature Dew Point Pressure Wind Wind Speed Wind Gust Humidity Rainfall Rate (Hourly) solar Conditions
00:01 15.8 °C 5.7 °C 1016.8 hPa West 22.2 km/h 22.2 km/h 51 % 0.0 mm 0.0 W/m2 CLR
00:06 15.7 °C 5.6 °C 1016.8 hPa West 17.7 km/h 17.7 km/h 51 % 0.0 mm 0.0 W/m2 CLR
00:11 15.7 °C 5.6 °C 1017.2 hPa West 14.8 km/h 14.8 km/h 51 % 0.0 mm 0.0 W/m2 CLR
00:16 15.6 °C 5.8 °C 1017.2 hPa West 13.0 km/h 13.0 km/h 52 % 0.0 mm 0.0 W/m2 CLR
00:21 15.5 °C 5.7 °C 1017.2 hPa WSW 13.0 km/h 13.0 km/h 52 % 0.0 mm 0.0 W/m2 CLR
00:26 15.4 °C 5.6 °C 1017.5 hPa West 7.4 km/h 7.4 km/h 52 % 0.0 mm 0.0 W/m2 CLR
00:31 15.2 °C 5.7 °C 1017.5 hPa WNW 13.0 km/h 13.0 km/h 53 % 0.0 mm 0.0 W/m2 CLR
00:36 15.1 °C 5.6 °C 1017.5 hPa WNW 3.7 km/h 3.7 km/h 53 % 0.0 mm 0.0 W/m2 CLR
00:41 14.9 °C 5.7 °C 1017.5 hPa Calm     54 % 0.0 mm 0.0 W/m2 CLR
00:46 14.8 °C 5.6 °C 1017.5 hPa Calm     54 % 0.0 mm 0.0 W/m2 CLR
00:51 14.7 °C 5.8 °C 1017.8 hPa WNW 5.6 km/h 5.6 km/h 55 % 0.0 mm 0.0 W/m2 CLR
00:56 14.7 °C 5.7 °C 1017.8 hPa WNW 13.0 km/h 13.0 km/h 55 % 0.0 mm 0.0 W/m2 CLR
01:01 14.6 °C 5.7 °C 1017.8 hPa WNW 5.6 km/h 5.6 km/h 55 % 0.0 mm 0.0 W/m2 CLR
01:06 14.4 °C 5.8 °C 1017.8 hPa West 7.4 km/h 7.4 km/h 56 % 0.0 mm 0.0 W/m2 CLR
01:11 14.4 °C 5.7 °C 1017.8 hPa Calm     56 % 0.0 mm 0.0 W/m2 CLR
01:16 14.3 °C 5.6 °C 1017.8 hPa Calm     56 % 0.0 mm 0.0 W/m2 CLR
01:21 14.2 °C 5.6 °C 1017.8 hPa Calm     56 % 0.0 mm 0.0 W/m2 CLR
01:26 14.1 °C 5.7 °C 1018.2 hPa WNW 9.3 km/h 9.3 km/h 57 % 0.0 mm 0.0 W/m2 CLR
01:31 14.1 °C 5.7 °C 1018.2 hPa West 3.7 km/h 3.7 km/h 57 % 0.0 mm 0.0 W/m2 CLR
01:36 14.0 °C 5.6 °C 1018.2 hPa WNW 5.6 km/h   57 % 0.0 mm 0.0 W/m2 CLR
01:41 13.8 °C 5.7 °C 1018.2 hPa WNW 5.6 km/h 5.6 km/h 58 % 0.0 mm 0.0 W/m2 CLR
01:46 13.6 °C 5.7 °C 1018.2 hPa WNW 9.3 km/h 9.3 km/h 59 % 0.0 mm 0.0 W/m2 CLR
01:51 13.6 °C 5.7 °C 1018.2 hPa WNW 5.6 km/h 5.6 km/h 59 % 0.0 mm 0.0 W/m2 CLR
01:56 13.4 °C 5.6 °C 1018.2 hPa West 5.6 km/h 5.6 km/h 59 % 0.0 mm 0.0 W/m2 CLR
02:01 13.4 °C 5.6 °C 1018.2 hPa Calm     59 % 0.0 mm 0.0 W/m2 CLR
02:06 13.2 °C 5.4 °C 1018.2 hPa Calm     59 % 0.0 mm 0.0 W/m2 CLR
02:11 13.0 °C 5.4 °C 1018.2 hPa Calm     60 % 0.0 mm 0.0 W/m2 CLR
02:16 12.6 °C 5.3 °C 1018.2 hPa Calm     61 % 0.0 mm 0.0 W/m2 CLR
02:21 12.3 °C 5.2 °C 1018.2 hPa Calm     62 % 0.0 mm 0.0 W/m2 CLR
02:26 12.1 °C 5.3 °C 1018.5 hPa Calm     63 % 0.0 mm 0.0 W/m2 CLR
02:31 11.9 °C 5.1 °C 1018.5 hPa Calm     63 % 0.0 mm 0.0 W/m2 CLR
02:36 11.9 °C 5.3 °C 1018.5 hPa Calm     64 % 0.0 mm 0.0 W/m2 CLR
02:41 11.9 °C 5.5 °C 1018.5 hPa Calm     65 % 0.0 mm 0.0 W/m2 CLR
02:46 12.2 °C 5.6 °C 1018.5 hPa West 1.9 km/h   64 % 0.0 mm 0.0 W/m2 CLR
02:51 12.3 °C 5.4 °C 1018.5 hPa WSW 1.9 km/h   63 % 0.0 mm 0.0 W/m2 CLR
02:56 12.1 °C 5.3 °C 1018.5 hPa SW 1.9 km/h 1.9 km/h 63 % 0.0 mm 0.0 W/m2 CLR
02:57 12.1 °C 5.2 °C 1018.5 hPa SW 1.9 km/h 1.9 km/h 63 % 0.0 mm 0.0 W/m2 CLR
03:02 11.6 °C 5.2 °C 1018.5 hPa WSW 3.7 km/h 3.7 km/h 65 % 0.0 mm 0.0 W/m2 CLR
03:07 11.4 °C 5.3 °C 1018.8 hPa WSW 5.6 km/h 5.6 km/h 66 % 0.0 mm 0.0 W/m2 CLR
03:12 11.4 °C 5.3 °C 1018.8 hPa West 6.4 km/h 6.4 km/h 66 % 0.0 mm 0.0 W/m2 CLR
03:17 11.8 °C 5.2 °C 1018.5 hPa West 5.6 km/h 5.6 km/h 64 % 0.0 mm 0.0 W/m2 CLR
03:22 11.8 °C 5.2 °C 1018.5 hPa WSW 3.7 km/h 3.7 km/h 64 % 0.0 mm 0.0 W/m2 CLR
03:27 11.6 °C 5.0 °C 1018.5 hPa Calm     64 % 0.0 mm 0.0 W/m2 CLR
03:32 11.4 °C 5.1 °C 1018.8 hPa WSW 5.6 km/h 5.6 km/h 65 % 0.0 mm 0.0 W/m2 CLR
03:37 11.3 °C 5.2 °C 1018.8 hPa WSW 5.6 km/h 6.0 km/h 66 % 0.0 mm 0.0 W/m2 CLR
03:42 11.3 °C 4.9 °C 1018.8 hPa Calm     65 % 0.0 mm 0.0 W/m2 CLR
03:47 11.1 °C 4.9 °C 1018.8 hPa SW 3.7 km/h 3.7 km/h 66 % 0.0 mm 0.0 W/m2 CLR
03:52 10.8 °C 4.9 °C 1018.8 hPa Calm   1.3 km/h 67 % 0.0 mm 0.0 W/m2 CLR
03:57 10.4 °C 4.6 °C 1018.8 hPa SW 5.6 km/h 5.6 km/h 67 % 0.0 mm 0.0 W/m2 CLR
04:02 10.1 °C 4.7 °C 1018.8 hPa Calm     69 % 0.0 mm 0.0 W/m2 CLR
04:07 9.8 °C 4.6 °C 1018.8 hPa WSW 5.6 km/h 5.6 km/h 70 % 0.0 mm 0.0 W/m2 CLR
04:12 10.2 °C 4.9 °C 1018.8 hPa West 9.3 km/h 9.3 km/h 70 % 0.0 mm 0.0 W/m2 CLR
04:17 10.6 °C 4.9 °C 1018.8 hPa West 11.3 km/h 11.3 km/h 68 % 0.0 mm 0.0 W/m2 CLR
04:22 11.1 °C 5.0 °C 1018.8 hPa West 13.0 km/h 13.0 km/h 66 % 0.0 mm 0.0 W/m2 CLR
04:27 11.6 °C 5.0 °C 1018.8 hPa WNW 20.4 km/h 20.4 km/h 64 % 0.0 mm 0.0 W/m2 CLR
04:32 11.8 °C 4.8 °C 1018.8 hPa WNW 18.5 km/h 18.5 km/h 62 % 0.0 mm 0.0 W/m2 CLR
04:37 12.0 °C 4.4 °C 1018.8 hPa West 18.5 km/h 18.5 km/h 60 % 0.0 mm 0.0 W/m2 CLR
04:42 12.1 °C 4.3 °C 1018.8 hPa WNW 18.5 km/h 18.5 km/h 59 % 0.0 mm 0.0 W/m2 CLR
04:47 12.2 °C 4.4 °C 1019.2 hPa West 18.5 km/h 18.5 km/h 59 % 0.0 mm 0.0 W/m2 CLR
04:52 12.2 °C 4.4 °C 1019.2 hPa West 12.9 km/h 12.9 km/h 59 % 0.0 mm 0.0 W/m2 CLR
04:57 12.1 °C 4.3 °C 1019.2 hPa Calm     59 % 0.0 mm 0.0 W/m2 CLR
05:02 11.3 °C 4.3 °C 1018.8 hPa Calm     62 % 0.0 mm 0.0 W/m2 CLR
05:07 10.7 °C 4.1 °C 1018.8 hPa Calm     64 % 0.0 mm 0.0 W/m2 CLR
05:12 10.2 °C 4.1 °C 1018.8 hPa Calm     66 % 0.0 mm 0.0 W/m2 CLR
05:17 9.9 °C 4.3 °C 1018.8 hPa Calm     68 % 0.0 mm 0.0 W/m2 CLR
05:22 9.8 °C 4.2 °C 1018.8 hPa Calm     68 % 0.0 mm 0.0 W/m2 CLR
05:27 9.9 °C 4.3 °C 1018.8 hPa SSW 5.6 km/h 5.6 km/h 68 % 0.0 mm 0.0 W/m2 CLR
05:32 10.2 °C 4.4 °C 1019.2 hPa SSW 7.4 km/h 7.4 km/h 67 % 0.0 mm 0.0 W/m2 CLR
05:37 10.6 °C 4.4 °C 1018.8 hPa SW 5.6 km/h   66 % 0.0 mm 0.0 W/m2 CLR
05:42 10.6 °C 4.4 °C 1018.8 hPa SW 3.7 km/h   66 % 0.0 mm 0.0 W/m2 CLR
05:47 10.5 °C 4.4 °C 1018.8 hPa SW 3.7 km/h   66 % 0.0 mm 0.0 W/m2 CLR
05:52 10.6 °C 4.4 °C 1019.2 hPa Calm     66 % 0.0 mm 0.0 W/m2 CLR
05:57 10.6 °C 4.3 °C 1019.2 hPa Calm     65 % 0.0 mm 0.0 W/m2 CLR
06:02 10.6 °C 4.3 °C 1018.8 hPa Calm     65 % 0.0 mm 0.0 W/m2 CLR
06:07 10.5 °C 4.2 °C 1018.8 hPa Calm     65 % 0.0 mm 0.0 W/m2 CLR
06:12 10.5 °C 4.2 °C 1018.8 hPa Calm     65 % 0.0 mm 0.0 W/m2 CLR
06:17 10.4 °C 4.3 °C 1018.8 hPa Calm     66 % 0.0 mm 0.0 W/m2 CLR
06:22 10.3 °C 4.3 °C 1018.8 hPa Calm     66 % 0.0 mm 0.0 W/m2 CLR
06:27 10.2 °C 4.2 °C 1019.2 hPa Calm     66 % 0.0 mm 0.0 W/m2 CLR
06:32 10.1 °C 4.1 °C 1019.2 hPa Calm     66 % 0.0 mm 0.0 W/m2 CLR
06:37 10.2 °C 4.4 °C 1019.2 hPa Calm     67 % 0.0 mm 0.0 W/m2 CLR
06:42 9.9 °C 4.3 °C 1019.2 hPa Calm     68 % 0.0 mm 0.0 W/m2 CLR
06:47 9.7 °C 4.3 °C 1019.2 hPa Calm     69 % 0.0 mm 0.0 W/m2 CLR
06:52 9.9 °C 4.3 °C 1019.5 hPa Calm     68 % 0.0 mm 0.0 W/m2 CLR
06:57 10.1 °C 4.4 °C 1019.5 hPa Calm     68 % 0.0 mm 0.0 W/m2 CLR
07:02 10.2 °C 3.9 °C 1019.5 hPa Calm     65 % 0.0 mm 0.0 W/m2 CLR
07:07 10.4 °C 4.2 °C 1019.5 hPa Calm     65 % 0.0 mm 0.0 W/m2 OVC
07:12 10.5 °C 4.2 °C 1019.5 hPa Calm     65 % 0.0 mm 0.0 W/m2 OVC
07:17 10.7 °C 4.1 °C 1019.5 hPa Calm     64 % 0.0 mm 5.0 W/m2 OVC
07:23 10.7 °C 3.9 °C 1019.9 hPa Calm     63 % 0.0 mm 5.0 W/m2 OVC
07:28 10.8 °C 3.8 °C 1019.9 hPa SW 5.6 km/h 5.6 km/h 62 % 0.0 mm 7.0 W/m2 BKN
07:33 10.9 °C 3.9 °C 1019.9 hPa SW 3.7 km/h 3.7 km/h 62 % 0.0 mm 11.0 W/m2 BKN
07:38 11.1 °C 4.1 °C 1019.9 hPa Calm     62 % 0.0 mm 18.0 W/m2 BKN
07:43 11.1 °C 3.6 °C 1019.9 hPa WSW 7.4 km/h 7.4 km/h 60 % 0.0 mm 19.0 W/m2 BKN
07:48 11.2 °C 3.7 °C 1019.9 hPa Calm     60 % 0.0 mm 21.0 W/m2 BKN
07:53 11.3 °C 3.6 °C 1019.9 hPa Calm     59 % 0.0 mm 26.0 W/m2 BKN
07:58 11.3 °C 3.6 °C 1020.2 hPa Calm     59 % 0.0 mm 26.0 W/m2 BKN
08:03 11.3 °C 3.6 °C 1020.2 hPa West 4.8 km/h 4.8 km/h 59 % 0.0 mm 33.0 W/m2 BKN
08:08 11.3 °C 3.3 °C 1020.2 hPa WSW 5.6 km/h 5.6 km/h 58 % 0.0 mm 39.0 W/m2 BKN
08:13 11.3 °C 3.3 °C 1020.2 hPa Calm     58 % 0.0 mm 35.0 W/m2 BKN
08:18 11.3 °C 3.3 °C 1020.2 hPa Calm     58 % 0.0 mm 33.0 W/m2 BKN
08:23 11.3 °C 3.1 °C 1020.2 hPa SW 7.4 km/h 7.4 km/h 57 % 0.0 mm 44.0 W/m2 BKN
08:28 11.2 °C 3.0 °C 1020.5 hPa Calm     57 % 0.0 mm 47.0 W/m2 BKN
08:33 11.3 °C 3.1 °C 1020.5 hPa Calm     57 % 0.0 mm 44.0 W/m2 SCT
08:38 11.2 °C 2.8 °C 1020.2 hPa SSW 5.6 km/h 5.6 km/h 56 % 0.0 mm 44.0 W/m2 SCT
08:43 11.2 °C 3.0 °C 1020.2 hPa Calm     57 % 0.0 mm 69.0 W/m2 SCT
08:48 11.2 °C 3.0 °C 1020.2 hPa Calm     57 % 0.0 mm 70.0 W/m2 SCT
08:53 11.2 °C 2.9 °C 1020.5 hPa Calm     57 % 0.0 mm 88.0 W/m2 FEW
08:58 11.2 °C 2.9 °C 1020.5 hPa WSW 3.7 km/h 3.7 km/h 57 % 0.0 mm 97.0 W/m2 FEW
09:03 11.2 °C 2.9 °C 1020.5 hPa WSW 3.7 km/h 3.7 km/h 57 % 0.0 mm 130.0 W/m2 CLR
09:08 11.3 °C 3.1 °C 1020.5 hPa SW 5.6 km/h 5.6 km/h 57 % 0.0 mm 135.0 W/m2 CLR
09:13 11.4 °C 2.7 °C 1020.5 hPa SW 6.4 km/h 6.4 km/h 55 % 0.0 mm 206.0 W/m2 CLR
09:18 11.7 °C 2.9 °C 1020.2 hPa SW 7.4 km/h 7.4 km/h 55 % 0.0 mm 163.0 W/m2 CLR
09:23 11.8 °C 2.6 °C 1020.5 hPa WSW 11.1 km/h 11.1 km/h 53 % 0.0 mm 98.0 W/m2 CLR
09:28 11.8 °C 2.6 °C 1020.5 hPa West 5.6 km/h 5.6 km/h 53 % 0.0 mm 134.0 W/m2 CLR
09:33 12.1 °C 2.5 °C 1020.5 hPa SW 11.1 km/h 11.1 km/h 52 % 0.0 mm 227.0 W/m2 CLR
09:38 12.3 °C 2.2 °C 1020.5 hPa WNW 14.8 km/h 14.8 km/h 50 % 0.0 mm 221.0 W/m2 CLR
09:43 12.4 °C 1.9 °C 1020.5 hPa West 14.8 km/h 14.8 km/h 49 % 0.0 mm 299.0 W/m2 CLR
09:48 12.6 °C 2.1 °C 1020.5 hPa WSW 14.8 km/h 14.8 km/h 49 % 0.0 mm 269.0 W/m2 CLR
09:53 12.6 °C 1.9 °C 1020.5 hPa West 14.8 km/h 14.8 km/h 48 % 0.0 mm 236.0 W/m2 CLR
09:58 12.7 °C 2.3 °C 1020.5 hPa WSW 7.4 km/h 7.4 km/h 49 % 0.0 mm 239.0 W/m2 CLR
10:03 12.9 °C 2.1 °C 1020.5 hPa WNW 9.7 km/h 9.7 km/h 48 % 0.0 mm 299.0 W/m2 CLR
10:09 13.0 °C 1.9 °C 1020.5 hPa WNW 14.8 km/h 14.8 km/h 47 % 0.0 mm 438.0 W/m2 CLR
10:14 13.2 °C 2.2 °C 1020.5 hPa West 18.5 km/h 18.5 km/h 47 % 0.0 mm 513.0 W/m2 CLR
10:19 13.1 °C 1.7 °C 1020.5 hPa WNW 13.0 km/h 13.0 km/h 46 % 0.0 mm 295.0 W/m2 CLR
10:24 13.1 °C 1.4 °C 1020.5 hPa WSW 7.4 km/h 7.4 km/h 45 % 0.0 mm 318.0 W/m2 CLR
10:29 13.2 °C 1.8 °C 1020.5 hPa WSW 14.5 km/h 14.5 km/h 46 % 0.0 mm 325.0 W/m2 CLR
10:34 13.3 °C 1.6 °C 1020.5 hPa SSW 12.9 km/h 12.9 km/h 45 % 0.0 mm 422.0 W/m2 CLR
10:39 13.4 °C 1.4 °C 1020.5 hPa WSW 18.5 km/h 18.5 km/h 44 % 0.0 mm 360.0 W/m2 CLR
10:44 13.6 °C 1.5 °C 1020.2 hPa SW 14.8 km/h 14.8 km/h 44 % 0.0 mm 387.0 W/m2 CLR
10:49 13.9 °C 2.2 °C 1020.2 hPa SW 16.7 km/h 16.7 km/h 45 % 0.0 mm 512.0 W/m2 CLR
10:52 14.1 °C 2.0 °C 1020.2 hPa SW 18.5 km/h 18.5 km/h 44 % 0.0 mm 454.0 W/m2 CLR
10:57 14.2 °C 2.1 °C 1020.5 hPa WSW 5.6 km/h 5.6 km/h 44 % 0.0 mm 482.0 W/m2 CLR
11:02 14.2 °C 1.5 °C 1020.5 hPa SW 18.5 km/h 18.5 km/h 42 % 0.0 mm 489.0 W/m2 CLR
11:07 14.4 °C 2.3 °C 1020.2 hPa West 8.0 km/h 8.0 km/h 44 % 0.0 mm 483.0 W/m2 CLR
11:12 14.7 °C 2.2 °C 1020.2 hPa West 11.3 km/h 11.3 km/h 43 % 0.0 mm 448.0 W/m2 CLR
11:17 14.6 °C 2.2 °C 1020.5 hPa West 14.8 km/h 14.8 km/h 43 % 0.0 mm 399.0 W/m2 CLR
11:22 14.6 °C 2.2 °C 1020.5 hPa SW 13.0 km/h 13.0 km/h 43 % 0.0 mm 410.0 W/m2 CLR
11:27 14.7 °C 2.2 °C 1020.5 hPa West 9.3 km/h 9.3 km/h 43 % 0.0 mm 457.0 W/m2 CLR
11:32 14.7 °C 1.9 °C 1020.5 hPa WSW 11.1 km/h 11.1 km/h 42 % 0.0 mm 425.0 W/m2 CLR
11:37 14.7 °C 1.9 °C 1020.5 hPa SSW 6.4 km/h 6.4 km/h 42 % 0.0 mm 406.0 W/m2 CLR
11:42 14.7 °C 1.6 °C 1020.5 hPa SSW 3.7 km/h 4.2 km/h 41 % 0.0 mm 476.0 W/m2 CLR
11:47 14.7 °C 1.9 °C 1020.5 hPa WSW 16.7 km/h 16.7 km/h 42 % 0.0 mm 457.0 W/m2 CLR
11:52 14.8 °C 2.1 °C 1020.5 hPa SW 7.4 km/h 7.4 km/h 42 % 0.0 mm 429.0 W/m2 CLR
11:57 15.0 °C 2.2 °C 1020.5 hPa WSW 5.6 km/h 9.0 km/h 42 % 0.0 mm 420.0 W/m2 CLR
12:02 15.2 °C 2.0 °C 1020.2 hPa SW 16.7 km/h 16.7 km/h 41 % 0.0 mm 464.0 W/m2 CLR
12:07 15.3 °C 2.4 °C 1020.2 hPa WSW 13.0 km/h 13.0 km/h 42 % 0.0 mm 526.0 W/m2 CLR
12:12 15.4 °C 2.9 °C 1020.2 hPa SW 9.7 km/h 10.0 km/h 43 % 0.0 mm 503.0 W/m2 CLR
12:17 15.6 °C 2.3 °C 1020.2 hPa WSW 11.3 km/h 11.3 km/h 41 % 0.0 mm 478.0 W/m2 CLR
12:22 15.6 °C 3.0 °C 1020.2 hPa WSW 14.8 km/h 14.8 km/h 43 % 0.0 mm 519.0 W/m2 CLR
12:27 15.6 °C 3.1 °C 1020.2 hPa South 9.7 km/h 9.7 km/h 43 % 0.0 mm 420.0 W/m2 CLR
12:32 15.7 °C 3.2 °C 1020.2 hPa Calm     43 % 0.0 mm 492.0 W/m2 CLR
12:37 16.0 °C 3.7 °C 1020.2 hPa SSW 7.4 km/h 7.4 km/h 44 % 0.0 mm 598.0 W/m2 CLR
12:42 16.1 °C 4.1 °C 1020.2 hPa SSW 9.3 km/h 9.3 km/h 45 % 0.0 mm 874.0 W/m2 CLR
12:47 15.8 °C 5.4 °C 1020.2 hPa South 18.5 km/h 18.5 km/h 50 % 0.0 mm 615.0 W/m2 CLR
12:52 15.4 °C 5.3 °C 1020.2 hPa South 13.0 km/h 13.0 km/h 51 % 0.0 mm 489.0 W/m2 CLR
12:57 15.3 °C 4.7 °C 1020.2 hPa WSW 13.0 km/h 13.0 km/h 49 % 0.0 mm 454.0 W/m2 CLR
13:02 15.6 °C 5.7 °C 1020.2 hPa SSW 8.0 km/h 8.0 km/h 52 % 0.0 mm 522.0 W/m2 CLR
13:07 15.6 °C 6.1 °C 1020.2 hPa SSE 14.8 km/h 14.8 km/h 53 % 0.0 mm 526.0 W/m2 CLR
13:12 15.5 °C 6.2 °C 1019.9 hPa South 12.9 km/h 12.9 km/h 54 % 0.0 mm 489.0 W/m2 CLR
13:17 15.6 °C 6.1 °C 1019.9 hPa SW 14.8 km/h 14.8 km/h 53 % 0.0 mm 461.0 W/m2 CLR
13:22 15.6 °C 6.6 °C 1019.9 hPa SSW 14.8 km/h 14.8 km/h 55 % 0.0 mm 357.0 W/m2 CLR
13:27 15.4 °C 6.7 °C 1019.9 hPa SSE 18.5 km/h 18.5 km/h 56 % 0.0 mm 325.0 W/m2 CLR
13:32 15.3 °C 6.8 °C 1019.9 hPa SSW 12.9 km/h 12.9 km/h 57 % 0.0 mm 313.0 W/m2 CLR
13:37 15.3 °C 6.8 °C 1019.9 hPa SW 11.1 km/h 11.1 km/h 57 % 0.0 mm 294.0 W/m2 CLR
13:42 15.2 °C 6.7 °C 1019.9 hPa SSE 16.7 km/h 16.7 km/h 57 % 0.0 mm 276.0 W/m2 CLR
13:47 15.2 °C 6.7 °C 1019.9 hPa South 14.8 km/h 14.8 km/h 57 % 0.0 mm 352.0 W/m2 CLR
13:52 15.1 °C 7.2 °C 1019.9 hPa SSE 9.3 km/h 9.3 km/h 59 % 0.0 mm 436.0 W/m2 CLR
13:57 15.0 °C 7.8 °C 1019.5 hPa South 20.4 km/h 20.4 km/h 62 % 0.0 mm 399.0 W/m2 CLR
14:02 14.9 °C 7.9 °C 1019.5 hPa SSE 7.4 km/h 7.4 km/h 63 % 0.0 mm 309.0 W/m2 CLR
14:07 15.2 °C 7.5 °C 1019.5 hPa South 16.7 km/h 16.7 km/h 60 % 0.0 mm 490.0 W/m2 CLR
14:12 15.4 °C 7.4 °C 1019.5 hPa South 14.8 km/h 14.8 km/h 59 % 0.0 mm 490.0 W/m2 CLR
14:17 15.6 °C 7.9 °C 1019.5 hPa SW 11.1 km/h 11.1 km/h 60 % 0.0 mm 960.0 W/m2 CLR
14:22 16.1 °C 8.1 °C 1019.5 hPa SSE 12.9 km/h 12.9 km/h 59 % 0.0 mm 979.0 W/m2 CLR
14:27 16.2 °C 7.9 °C 1019.5 hPa SSW 22.5 km/h 22.5 km/h 58 % 0.0 mm 925.0 W/m2 CLR
14:32 16.3 °C 7.8 °C 1019.5 hPa SW 9.3 km/h 9.3 km/h 57 % 0.0 mm 919.0 W/m2 CLR
14:37 16.6 °C 8.0 °C 1019.5 hPa SSW 11.1 km/h 11.1 km/h 57 % 0.0 mm 893.0 W/m2 CLR
14:38 16.6 °C 8.0 °C 1019.2 hPa South 13.0 km/h 13.0 km/h 57 % 0.0 mm 895.0 W/m2 CLR
14:43 16.6 °C 7.7 °C 1019.2 hPa South 18.5 km/h 18.5 km/h 56 % 0.0 mm 271.0 W/m2 CLR
14:48 16.4 °C 7.9 °C 1019.2 hPa SSE 22.2 km/h 22.2 km/h 57 % 0.0 mm 986.0 W/m2 CLR
14:53 16.3 °C 8.2 °C 1019.2 hPa SSW 18.5 km/h 18.5 km/h 59 % 0.0 mm 1007.0 W/m2 CLR
14:58 16.3 °C 8.0 °C 1018.8 hPa SSW 24.1 km/h 24.1 km/h 58 % 0.0 mm 916.0 W/m2 CLR
15:03 16.2 °C 8.2 °C 1018.8 hPa South 24.1 km/h 24.1 km/h 59 % 0.0 mm 972.0 W/m2 CLR
15:08 16.1 °C 8.1 °C 1019.2 hPa SSW 22.2 km/h 22.2 km/h 59 % 0.0 mm 889.0 W/m2 CLR
15:14 16.4 °C 8.4 °C 1018.8 hPa SSW 18.5 km/h 18.5 km/h 59 % 0.0 mm 856.0 W/m2 CLR
15:19 16.9 °C 8.3 °C 1018.8 hPa South 13.0 km/h 13.0 km/h 57 % 0.0 mm 840.0 W/m2 CLR
15:24 16.9 °C 8.1 °C 1018.8 hPa South 18.5 km/h 18.5 km/h 56 % 0.0 mm 837.0 W/m2 CLR
15:29 17.1 °C 8.3 °C 1018.8 hPa South 18.5 km/h 18.5 km/h 56 % 0.0 mm 851.0 W/m2 CLR
15:34 16.9 °C 8.3 °C 1018.8 hPa South 20.9 km/h 20.9 km/h 57 % 0.0 mm 826.0 W/m2 CLR
15:39 16.8 °C 8.0 °C 1018.8 hPa SSE 18.5 km/h 18.5 km/h 56 % 0.0 mm 893.0 W/m2 CLR
15:44 16.9 °C 8.1 °C 1018.8 hPa SSW 20.4 km/h 20.4 km/h 56 % 0.0 mm 680.0 W/m2 CLR
15:49 17.0 °C 8.2 °C 1018.5 hPa SSW 13.0 km/h 13.0 km/h 56 % 0.0 mm 366.0 W/m2 CLR
15:54 17.2 °C 8.1 °C 1018.5 hPa SSE 14.8 km/h 14.8 km/h 55 % 0.0 mm 819.0 W/m2 CLR
15:59 17.4 °C 8.3 °C 1018.5 hPa South 14.8 km/h 14.8 km/h 55 % 0.0 mm 870.0 W/m2 CLR
16:04 17.6 °C 8.1 °C 1018.5 hPa SSE 18.5 km/h 18.5 km/h 54 % 0.0 mm 868.0 W/m2 CLR
16:09 17.4 °C 8.3 °C 1018.5 hPa SSW 18.5 km/h 18.5 km/h 55 % 0.0 mm 172.0 W/m2 CLR
16:14 17.3 °C 7.9 °C 1018.5 hPa SE 18.5 km/h 18.5 km/h 54 % 0.0 mm 257.0 W/m2 CLR
16:19 17.4 °C 8.3 °C 1018.5 hPa South 20.4 km/h 20.4 km/h 55 % 0.0 mm 844.0 W/m2 CLR
16:24 17.5 °C 8.3 °C 1018.2 hPa South 18.5 km/h 18.5 km/h 55 % 0.0 mm 814.0 W/m2 CLR
16:29 17.8 °C 8.1 °C 1018.2 hPa South 18.5 km/h 18.5 km/h 53 % 0.0 mm 752.0 W/m2 CLR
16:34 17.5 °C 8.1 °C 1018.2 hPa SSW 20.4 km/h 20.4 km/h 54 % 0.0 mm 185.0 W/m2 CLR
16:39 17.1 °C 8.0 °C 1018.2 hPa SSE 16.7 km/h 16.7 km/h 55 % 0.0 mm 225.0 W/m2 CLR
16:44 17.3 °C 7.9 °C 1018.2 hPa SE 18.5 km/h 18.5 km/h 54 % 0.0 mm 740.0 W/m2 CLR
16:49 17.1 °C 7.7 °C 1018.2 hPa South 16.7 km/h 16.7 km/h 54 % 0.0 mm 221.0 W/m2 CLR
16:54 17.4 °C 8.0 °C 1018.2 hPa SSE 18.5 km/h 18.5 km/h 54 % 0.0 mm 740.0 W/m2 CLR
16:59 17.4 °C 7.7 °C 1018.2 hPa South 20.4 km/h 20.4 km/h 53 % 0.0 mm 163.0 W/m2 CLR
17:04 17.3 °C 7.9 °C 1018.2 hPa SSE 18.5 km/h 18.5 km/h 54 % 0.0 mm 696.0 W/m2 CLR
17:09 17.4 °C 8.1 °C 1018.2 hPa SSW 13.0 km/h 13.0 km/h 54 % 0.0 mm 708.0 W/m2 CLR
17:14 17.7 °C 8.0 °C 1017.8 hPa ESE 16.1 km/h 16.1 km/h 53 % 0.0 mm 722.0 W/m2 CLR
17:19 17.6 °C 7.9 °C 1017.8 hPa SSW 27.8 km/h 27.8 km/h 53 % 0.0 mm 714.0 W/m2 CLR
17:24 17.5 °C 8.1 °C 1018.2 hPa South 14.8 km/h 14.8 km/h 54 % 0.0 mm 615.0 W/m2 CLR
17:29 17.5 °C 7.8 °C 1018.2 hPa SE 25.9 km/h 25.9 km/h 53 % 0.0 mm 686.0 W/m2 CLR
17:34 17.5 °C 8.1 °C 1018.2 hPa SSE 24.1 km/h 24.1 km/h 54 % 0.0 mm 603.0 W/m2 CLR
17:39 17.5 °C 8.1 °C 1017.8 hPa SSE 16.7 km/h 16.7 km/h 54 % 0.0 mm 564.0 W/m2 CLR
17:44 17.3 °C 7.9 °C 1017.8 hPa South 24.1 km/h 24.1 km/h 54 % 0.0 mm 534.0 W/m2 CLR
17:49 17.3 °C 7.9 °C 1018.2 hPa SSW 31.5 km/h 31.5 km/h 54 % 0.0 mm 522.0 W/m2 CLR
17:54 17.0 °C 7.6 °C 1018.2 hPa South 18.5 km/h 18.5 km/h 54 % 0.0 mm 508.0 W/m2 CLR
17:59 16.7 °C 7.6 °C 1018.2 hPa SE 25.9 km/h 25.9 km/h 55 % 0.0 mm 462.0 W/m2 CLR
18:04 16.5 °C 7.7 °C 1018.2 hPa SSW 25.7 km/h 25.7 km/h 56 % 0.0 mm 341.0 W/m2 CLR
18:09 16.2 °C 7.4 °C 1018.5 hPa SSW 25.9 km/h 25.9 km/h 56 % 0.0 mm 294.0 W/m2 CLR
18:14 15.9 °C 7.6 °C 1018.5 hPa SSW 16.7 km/h 16.7 km/h 58 % 0.0 mm 255.0 W/m2 CLR
18:19 16.0 °C 7.5 °C 1018.5 hPa SSE 16.7 km/h 16.7 km/h 57 % 0.0 mm 283.0 W/m2 CLR
18:24 15.7 °C 7.2 °C 1018.5 hPa SE 20.4 km/h 20.4 km/h 57 % 0.0 mm 392.0 W/m2 CLR
18:29 15.4 °C 7.2 °C 1018.5 hPa South 18.5 km/h 18.5 km/h 58 % 0.0 mm 251.0 W/m2 CLR
18:34 15.3 °C 7.1 °C 1018.5 hPa SSE 20.9 km/h 20.9 km/h 58 % 0.0 mm 185.0 W/m2 CLR
18:39 15.2 °C 6.9 °C 1018.8 hPa SSE 18.5 km/h 18.5 km/h 58 % 0.0 mm 230.0 W/m2 CLR
18:44 15.1 °C 7.1 °C 1018.8 hPa SSE 18.5 km/h 18.5 km/h 59 % 0.0 mm 188.0 W/m2 CLR
18:49 14.9 °C 6.9 °C 1018.8 hPa SSE 27.8 km/h 27.8 km/h 59 % 0.0 mm 174.0 W/m2 CLR
18:54 14.7 °C 6.7 °C 1018.8 hPa South 22.2 km/h 22.2 km/h 59 % 0.0 mm 142.0 W/m2 CLR
18:59 14.6 °C 6.9 °C 1018.8 hPa South 24.1 km/h 24.1 km/h 60 % 0.0 mm 128.0 W/m2 CLR
19:04 14.4 °C 6.7 °C 1019.2 hPa South 22.2 km/h 22.2 km/h 60 % 0.0 mm 125.0 W/m2 CLR
19:09 14.3 °C 6.6 °C 1019.2 hPa SSE 25.9 km/h 25.9 km/h 60 % 0.0 mm 195.0 W/m2 CLR
19:14 14.3 °C 6.6 °C 1019.2 hPa ESE 20.4 km/h 20.4 km/h 60 % 0.0 mm 176.0 W/m2 CLR
19:19 14.3 °C 6.6 °C 1019.2 hPa ESE 14.8 km/h 14.8 km/h 60 % 0.0 mm 102.0 W/m2 CLR
19:24 14.1 °C 6.7 °C 1019.2 hPa SE 20.4 km/h 20.4 km/h 61 % 0.0 mm 84.0 W/m2 CLR
19:29 14.1 °C 6.7 °C 1019.2 hPa South 13.0 km/h 13.0 km/h 61 % 0.0 mm 74.0 W/m2 CLR
19:34 13.9 °C 6.6 °C 1019.2 hPa SSE 22.2 km/h 22.2 km/h 61 % 0.0 mm 74.0 W/m2 FEW
19:39 13.8 °C 6.4 °C 1019.2 hPa South 16.7 km/h 16.7 km/h 61 % 0.0 mm 123.0 W/m2 FEW
19:44 13.7 °C 6.3 °C 1019.5 hPa South 16.7 km/h 16.7 km/h 61 % 0.0 mm 141.0 W/m2 CLR
19:49 13.6 °C 6.4 °C 1019.5 hPa South 22.2 km/h 22.2 km/h 62 % 0.0 mm 132.0 W/m2 CLR
19:54 13.6 °C 6.4 °C 1019.5 hPa South 20.4 km/h 20.4 km/h 62 % 0.0 mm 105.0 W/m2 CLR
19:59 13.6 °C 6.4 °C 1019.5 hPa South 24.1 km/h 24.1 km/h 62 % 0.0 mm 90.0 W/m2 CLR
20:04 13.5 °C 6.3 °C 1019.5 hPa South 13.0 km/h 13.0 km/h 62 % 0.0 mm 77.0 W/m2 FEW
20:09 13.4 °C 6.3 °C 1019.9 hPa SSE 24.1 km/h 24.1 km/h 62 % 0.0 mm 63.0 W/m2 SCT
20:14 13.3 °C 6.4 °C 1019.5 hPa South 27.4 km/h 27.4 km/h 63 % 0.0 mm 49.0 W/m2 SCT
20:19 13.2 °C 6.3 °C 1019.9 hPa SSE 20.4 km/h 20.4 km/h 63 % 0.0 mm 35.0 W/m2 BKN
20:24 13.1 °C 6.2 °C 1019.9 hPa South 22.2 km/h 22.2 km/h 63 % 0.0 mm 23.0 W/m2 BKN
20:29 13.0 °C 6.1 °C 1019.9 hPa South 16.7 km/h 16.7 km/h 63 % 0.0 mm 16.0 W/m2 BKN
20:34 12.9 °C 6.2 °C 1019.9 hPa South 18.5 km/h 18.5 km/h 64 % 0.0 mm 12.0 W/m2 BKN
20:39 12.8 °C 6.1 °C 1019.9 hPa SE 11.1 km/h 11.1 km/h 64 % 0.0 mm 7.0 W/m2 BKN
20:44 12.7 °C 6.1 °C 1019.9 hPa South 13.0 km/h 13.0 km/h 64 % 0.0 mm 0.0 W/m2 OVC
20:49 12.6 °C 6.2 °C 1020.2 hPa SSE 19.3 km/h 19.3 km/h 65 % 0.0 mm 0.0 W/m2 OVC
20:54 12.5 °C 6.1 °C 1020.2 hPa South 9.7 km/h 9.7 km/h 65 % 0.0 mm 0.0 W/m2 CLR
20:59 12.3 °C 6.2 °C 1020.2 hPa South 11.3 km/h 11.3 km/h 66 % 0.0 mm 0.0 W/m2 CLR
21:04 12.2 °C 6.1 °C 1020.2 hPa South 7.4 km/h 7.4 km/h 66 % 0.0 mm 0.0 W/m2 CLR
21:09 12.2 °C 6.0 °C 1020.5 hPa SSE 11.3 km/h 11.3 km/h 66 % 0.0 mm 0.0 W/m2 CLR
21:14 12.1 °C 6.1 °C 1020.5 hPa SSW 13.0 km/h 13.0 km/h 67 % 0.0 mm 0.0 W/m2 CLR
21:19 11.9 °C 6.0 °C 1020.5 hPa South 14.8 km/h 14.8 km/h 67 % 0.0 mm 0.0 W/m2 CLR
21:24 11.8 °C 6.1 °C 1020.9 hPa Calm     68 % 0.0 mm 0.0 W/m2 CLR
21:29 11.8 °C 6.1 °C 1020.9 hPa SE 5.6 km/h 5.6 km/h 68 % 0.0 mm 0.0 W/m2 CLR
21:34 11.7 °C 6.0 °C 1020.9 hPa South 1.9 km/h 1.9 km/h 68 % 0.0 mm 0.0 W/m2 CLR
21:39 11.7 °C 6.0 °C 1020.9 hPa SSE 7.4 km/h 7.4 km/h 68 % 0.0 mm 0.0 W/m2 CLR
21:44 11.6 °C 5.9 °C 1020.9 hPa South 1.9 km/h 1.9 km/h 68 % 0.0 mm 0.0 W/m2 CLR
21:49 11.5 °C 5.8 °C 1020.9 hPa South 5.6 km/h 5.6 km/h 68 % 0.0 mm 0.0 W/m2 CLR
21:54 11.4 °C 5.9 °C 1021.2 hPa Calm     69 % 0.0 mm 0.0 W/m2 CLR
21:59 11.3 °C 5.8 °C 1021.2 hPa SSW 9.3 km/h 9.3 km/h 69 % 0.0 mm 0.0 W/m2 CLR
22:04 11.3 °C 5.8 °C 1021.2 hPa SE 5.6 km/h 5.6 km/h 69 % 0.0 mm 0.0 W/m2 CLR
22:09 11.2 °C 5.9 °C 1021.2 hPa South 13.0 km/h 13.0 km/h 70 % 0.0 mm 0.0 W/m2 CLR
22:14 11.2 °C 5.9 °C 1021.2 hPa SSE 3.2 km/h 3.2 km/h 70 % 0.0 mm 0.0 W/m2 CLR
22:19 11.1 °C 5.8 °C 1021.6 hPa South 5.6 km/h 5.6 km/h 70 % 0.0 mm 0.0 W/m2 CLR
22:24 11.1 °C 5.8 °C 1021.6 hPa SSE 5.6 km/h 5.6 km/h 70 % 0.0 mm 0.0 W/m2 CLR
22:29 11.0 °C 5.7 °C 1021.6 hPa SSE 4.8 km/h 4.8 km/h 70 % 0.0 mm 0.0 W/m2 CLR
22:34 11.0 °C 5.9 °C 1021.6 hPa SSE 7.4 km/h 7.4 km/h 71 % 0.0 mm 0.0 W/m2 CLR
22:39 10.9 °C 5.9 °C 1021.6 hPa South 7.4 km/h 7.4 km/h 71 % 0.0 mm 0.0 W/m2 CLR
22:44 10.9 °C 5.8 °C 1021.6 hPa South 5.6 km/h 5.6 km/h 71 % 0.0 mm 0.0 W/m2 CLR
22:50 10.9 °C 5.8 °C 1021.6 hPa Calm     71 % 0.0 mm 0.0 W/m2 CLR
22:55 10.8 °C 5.8 °C 1021.9 hPa Calm     71 % 0.0 mm 0.0 W/m2 CLR
23:00 10.8 °C 5.8 °C 1021.9 hPa SSE 5.6 km/h 5.6 km/h 71 % 0.0 mm 0.0 W/m2 CLR
23:05 10.8 °C 5.7 °C 1021.9 hPa Calm     71 % 0.0 mm 0.0 W/m2 CLR
23:10 10.8 °C 5.7 °C 1021.9 hPa SSE 5.6 km/h 5.6 km/h 71 % 0.0 mm 0.0 W/m2 CLR
23:15 10.8 °C 5.7 °C 1021.9 hPa Calm     71 % 0.0 mm 0.0 W/m2 CLR
23:20 10.7 °C 5.9 °C 1021.9 hPa Calm     72 % 0.0 mm 0.0 W/m2 CLR
23:25 10.6 °C 5.7 °C 1021.9 hPa Calm     72 % 0.0 mm 0.0 W/m2 CLR
23:30 10.5 °C 5.7 °C 1022.2 hPa Calm     72 % 0.0 mm 0.0 W/m2 CLR
23:35 10.4 °C 5.6 °C 1022.2 hPa Calm     72 % 0.0 mm 0.0 W/m2 CLR
23:40 10.4 °C 5.8 °C 1022.2 hPa Calm     73 % 0.0 mm 0.0 W/m2 CLR
23:45 10.3 °C 5.7 °C 1022.2 hPa Calm     73 % 0.0 mm 0.0 W/m2 CLR
23:50 10.2 °C 5.6 °C 1022.2 hPa Calm     73 % 0.0 mm 0.0 W/m2 CLR
23:55 10.2 °C 5.6 °C 1022.6 hPa Calm     73 % 0.0 mm 0.0 W/m2 CLR
Lo Temps de Massalio
Compliments of Weather Underground - 1.25 mb